Time;durP1;ratioP1;P1;durP2;ratioP2;P2;SDS_P1;SDS_P2;PMS_P1;PMS_P2;Temp;Humidity;BMP_temperature;BMP_pressure;BME280_temperature;BME280_humidity;BME280_pressure;Samples;Min_cycle;Max_cycle;Signal;HPM_P1;HPM_P2
2021/08/07 00:01:40;;;;;;;10.18;4.50;;;563.20;2406.40;;;;;;5124869;27;20030;-84
2021/08/07 00:04:05;;;;;;;7.28;4.43;;;563.40;2406.40;;;;;;5116789;27;20108;-84
2021/08/07 00:06:31;;;;;;;6.47;4.18;;;563.40;2380.80;;;;;;5138804;27;20489;-83
2021/08/07 00:08:57;;;;;;;7.72;3.88;;;563.40;2432.00;;;;;;5115484;27;20477;-86
2021/08/07 00:11:23;;;;;;;10.02;4.50;;;563.30;2406.40;;;;;;5131166;27;20098;-84
2021/08/07 00:13:48;;;;;;;7.00;4.35;;;563.30;2432.00;;;;;;5098274;28;20027;-83
2021/08/07 00:16:14;;;;;;;10.10;3.88;;;563.40;2406.40;;;;;;5107696;28;20127;-85
2021/08/07 00:18:40;;;;;;;7.40;3.97;;;563.40;2380.80;;;;;;5117074;27;20028;-85
2021/08/07 00:21:06;;;;;;;5.45;3.53;;;563.50;2355.20;;;;;;5118858;27;20023;-83
2021/08/07 00:23:31;;;;;;;9.13;3.80;;;563.50;2355.20;;;;;;5115674;27;20441;-83
2021/08/07 00:25:57;;;;;;;7.30;4.35;;;563.50;2355.20;;;;;;5113293;27;20070;-84
2021/08/07 00:28:23;;;;;;;6.18;3.60;;;563.60;2355.20;;;;;;5118821;27;20387;-83
2021/08/07 00:30:49;;;;;;;6.55;3.97;;;563.60;2355.20;;;;;;5098106;28;20450;-83
2021/08/07 00:33:15;;;;;;;7.80;3.40;;;563.40;2380.80;;;;;;5115113;27;20072;-82
2021/08/07 00:35:40;;;;;;;7.70;4.20;;;563.50;2380.80;;;;;;5107439;27;20031;-82
2021/08/07 00:38:06;;;;;;;8.68;4.22;;;563.60;2355.20;;;;;;5132956;27;20020;-83
2021/08/07 00:40:32;;;;;;;8.13;3.95;;;563.70;2355.20;;;;;;5145006;27;20053;-83
2021/08/07 00:42:57;;;;;;;6.18;4.20;;;563.60;2355.20;;;;;;5111386;27;20027;-82
2021/08/07 00:45:23;;;;;;;6.00;3.58;;;563.70;2355.20;;;;;;5114165;27;20026;-83
2021/08/07 00:47:49;;;;;;;8.32;4.38;;;563.50;2380.80;;;;;;5118028;27;20073;-85
2021/08/07 00:50:15;;;;;;;6.15;3.53;;;563.30;2380.80;;;;;;5110772;27;20113;-85
2021/08/07 00:52:42;;;;;;;8.00;4.25;;;563.30;2380.80;;;;;;5117562;27;20097;-86
2021/08/07 00:55:08;;;;;;;4.93;3.67;;;563.50;2355.20;;;;;;5131302;27;20031;-84
2021/08/07 00:57:34;;;;;;;10.35;3.78;;;563.50;2355.20;;;;;;5107085;28;20051;-84
2021/08/07 01:00:00;;;;;;;6.22;3.88;;;563.40;2380.80;;;;;;5114645;28;20111;-83
2021/08/07 01:02:27;;;;;;;6.95;3.72;;;563.20;2380.80;;;;;;5117908;27;20023;-84
2021/08/07 01:05:15;;;;;;;6.85;3.40;;;538.50;2380.80;;;;;;5126117;27;20075;-84
2021/08/07 01:08:09;;;;;;;6.07;3.35;;;538.50;2380.80;;;;;;5103406;27;20031;-84
2021/08/07 01:10:46;;;;;;;5.57;3.65;;;538.50;2406.40;;;;;;5117050;27;20065;-84
2021/08/07 01:13:21;;;;;;;4.68;3.30;;;563.20;2380.80;;;;;;5109608;27;20106;-82
2021/08/07 01:15:55;;;;;;;8.93;4.32;;;563.20;2355.20;;;;;;5117501;27;20515;-83
2021/08/07 01:18:25;;;;;;;5.88;3.97;;;563.40;2355.20;;;;;;5117636;27;20023;-83
2021/08/07 01:20:54;;;;;;;14.43;4.68;;;563.40;2355.20;;;;;;5109102;28;20035;-82
2021/08/07 01:23:22;;;;;;;6.63;3.22;;;563.50;2355.20;;;;;;5124767;27;20527;-83
2021/08/07 01:25:50;;;;;;;5.03;3.30;;;563.30;2355.20;;;;;;5124126;27;20019;-81
2021/08/07 01:28:17;;;;;;;5.22;3.80;;;563.30;2380.80;;;;;;5129958;27;20041;-81
2021/08/07 01:30:44;;;;;;;7.10;4.07;;;538.50;2355.20;;;;;;5130046;27;20028;-83
2021/08/07 01:33:10;;;;;;;5.53;3.33;;;538.50;2355.20;;;;;;5114984;27;20019;-83
2021/08/07 01:35:36;;;;;;;9.80;3.40;;;563.30;2380.80;;;;;;5117357;27;20028;-82
2021/08/07 01:38:04;;;;;;;5.03;3.40;;;563.30;2380.80;;;;;;5124867;27;20019;-81
2021/08/07 01:40:30;;;;;;;6.25;3.58;;;563.40;2380.80;;;;;;5123557;27;20031;-82
2021/08/07 01:42:55;;;;;;;6.55;3.30;;;563.40;2355.20;;;;;;5130442;27;20395;-86
2021/08/07 01:45:21;;;;;;;7.45;3.63;;;563.40;2355.20;;;;;;5114905;27;20076;-83
2021/08/07 01:47:59;;;;;;;4.80;3.50;;;563.40;2329.60;;;;;;5097703;28;20088;-83
2021/08/07 01:50:31;;;;;;;4.03;3.10;;;563.40;2329.60;;;;;;5111211;27;20038;-84
2021/08/07 01:53:09;;;;;;;4.97;3.30;;;563.40;2355.20;;;;;;5100463;28;20024;-83
2021/08/07 01:55:47;;;;;;;9.45;3.85;;;538.50;2355.20;;;;;;5096571;28;20032;-87
2021/08/07 01:58:29;;;;;;;8.20;3.83;;;538.30;2380.80;;;;;;5113415;27;20023;-87
2021/08/07 02:00:57;;;;;;;6.78;3.60;;;538.20;2406.40;;;;;;5131819;27;20019;-83
2021/08/07 02:03:25;;;;;;;6.90;4.18;;;538.30;2406.40;;;;;;5114980;27;20038;-86
2021/08/07 02:05:51;;;;;;;6.47;3.83;;;538.20;2380.80;;;;;;5115746;27;20023;-84
2021/08/07 02:08:18;;;;;;;7.93;4.40;;;538.30;2380.80;;;;;;5116741;27;20071;-84
2021/08/07 02:10:48;;;;;;;5.60;4.10;;;538.10;2380.80;;;;;;5116475;27;20028;-84
2021/08/07 02:13:18;;;;;;;6.10;4.15;;;538.10;2380.80;;;;;;5116117;27;20019;-82
2021/08/07 02:15:46;;;;;;;7.13;4.90;;;538.00;2406.40;;;;;;5134126;27;20404;-82
2021/08/07 02:18:13;;;;;;;8.07;4.97;;;537.90;2406.40;;;;;;5116091;27;20097;-85
2021/08/07 02:20:40;;;;;;;6.28;4.68;;;537.90;2406.40;;;;;;5125430;27;20035;-83
2021/08/07 02:23:06;;;;;;;9.82;5.22;;;537.80;2406.40;;;;;;5114952;27;20046;-80
2021/08/07 02:25:32;;;;;;;6.75;4.65;;;537.80;2406.40;;;;;;5130578;27;20020;-82
2021/08/07 02:28:00;;;;;;;11.07;5.70;;;537.80;2406.40;;;;;;5111019;27;20087;-81
2021/08/07 02:30:26;;;;;;;9.82;4.85;;;537.80;2406.40;;;;;;5115500;27;20019;-83
2021/08/07 02:32:52;;;;;;;10.52;6.28;;;537.90;2406.40;;;;;;5112207;27;20015;-82
2021/08/07 02:35:19;;;;;;;9.18;5.35;;;537.80;2406.40;;;;;;5114557;27;20109;-83
2021/08/07 02:37:45;;;;;;;6.97;5.13;;;537.70;2406.40;;;;;;5108438;28;20412;-83
2021/08/07 02:40:13;;;;;;;8.80;5.40;;;512.90;2380.80;;;;;;5107130;28;20028;-82
2021/08/07 02:42:41;;;;;;;8.27;5.82;;;512.90;2380.80;;;;;;5112980;28;20027;-81
2021/08/07 02:45:07;;;;;;;8.70;5.72;;;512.80;2380.80;;;;;;5112679;28;20030;-81
2021/08/07 02:47:34;;;;;;;9.85;6.07;;;512.40;2380.80;;;;;;5108778;28;20042;-81
2021/08/07 02:50:05;;;;;;;10.45;6.05;;;512.40;2380.80;;;;;;5103746;28;20074;-82
2021/08/07 02:52:33;;;;;;;8.65;5.72;;;512.20;2380.80;;;;;;5115991;28;20019;-80
2021/08/07 02:54:58;;;;;;;13.65;6.63;;;512.10;2380.80;;;;;;5124413;27;20019;-81
2021/08/07 02:57:24;;;;;;;12.43;5.93;;;512.00;2380.80;;;;;;5117902;27;20042;-82
2021/08/07 02:59:50;;;;;;;8.52;5.30;;;512.10;2380.80;;;;;;5126532;27;20149;-81
2021/08/07 03:02:16;;;;;;;10.18;5.20;;;512.40;2380.80;;;;;;5108605;27;20020;-81
2021/08/07 03:04:42;;;;;;;8.13;5.68;;;512.50;2380.80;;;;;;5119687;27;20027;-81
2021/08/07 03:07:08;;;;;;;11.20;5.95;;;512.70;2380.80;;;;;;5119897;27;20114;-81
2021/08/07 03:09:33;;;;;;;11.88;6.70;;;512.80;2380.80;;;;;;5116564;27;20105;-81
2021/08/07 03:11:59;;;;;;;10.57;6.93;;;512.60;2380.80;;;;;;5107840;28;20020;-81
2021/08/07 03:14:25;;;;;;;11.52;7.18;;;512.70;2380.80;;;;;;5118173;27;20441;-81
2021/08/07 03:16:50;;;;;;;12.75;7.40;;;512.80;2380.80;;;;;;5110658;28;20054;-81
2021/08/07 03:19:16;;;;;;;9.60;5.63;;;512.80;2380.80;;;;;;5110719;27;20469;-82
2021/08/07 03:21:42;;;;;;;8.65;6.47;;;512.80;2380.80;;;;;;5113808;27;20106;-84
2021/08/07 03:24:08;;;;;;;10.32;6.60;;;512.70;2380.80;;;;;;5111983;27;20124;-82
2021/08/07 03:26:34;;;;;;;13.05;6.85;;;512.50;2380.80;;;;;;5106009;28;20012;-83
2021/08/07 03:29:00;;;;;;;10.63;6.35;;;512.20;2380.80;;;;;;5089223;28;20096;-84
2021/08/07 03:31:26;;;;;;;13.93;7.53;;;512.10;2380.80;;;;;;5089559;28;20370;-81
2021/08/07 03:33:51;;;;;;;8.77;5.65;;;487.30;2380.80;;;;;;5111246;28;20363;-81
2021/08/07 03:36:17;;;;;;;13.52;6.85;;;487.20;2380.80;;;;;;5080148;28;20024;-82
2021/08/07 03:38:43;;;;;;;14.05;6.82;;;487.10;2380.80;;;;;;5112443;28;20571;-83
2021/08/07 03:41:09;;;;;;;12.27;7.07;;;487.20;2380.80;;;;;;5097928;28;20118;-83
2021/08/07 03:43:34;;;;;;;10.32;6.28;;;487.10;2380.80;;;;;;5098179;28;20027;-82
2021/08/07 03:46:00;;;;;;;9.45;5.88;;;487.20;2380.80;;;;;;5108255;28;20021;-82
2021/08/07 03:48:26;;;;;;;11.90;5.53;;;487.10;2380.80;;;;;;5114978;28;20470;-82
2021/08/07 03:50:51;;;;;;;13.32;5.25;;;487.10;2380.80;;;;;;5115957;27;20476;-82
2021/08/07 03:53:17;;;;;;;11.45;5.40;;;487.20;2380.80;;;;;;5090147;28;20385;-82
2021/08/07 03:55:43;;;;;;;10.52;5.43;;;487.20;2380.80;;;;;;5125549;27;20047;-78
2021/08/07 03:58:09;;;;;;;11.35;5.40;;;487.20;2380.80;;;;;;5094266;28;20032;-83
2021/08/07 04:00:35;;;;;;;10.07;5.10;;;487.20;2380.80;;;;;;5115447;28;20055;-83
2021/08/07 04:03:01;;;;;;;9.63;5.80;;;487.30;2380.80;;;;;;5116026;28;20031;-83
2021/08/07 04:05:27;;;;;;;6.22;4.95;;;487.20;2380.80;;;;;;5116298;28;20054;-82
2021/08/07 04:08:01;;;;;;;11.10;6.00;;;487.20;2380.80;;;;;;5116119;28;20028;-82
2021/08/07 04:10:26;;;;;;;6.22;5.10;;;487.10;2380.80;;;;;;5095924;28;20016;-83
2021/08/07 04:12:52;;;;;;;12.32;5.25;;;487.10;2380.80;;;;;;5097102;28;20067;-82
2021/08/07 04:15:18;;;;;;;16.13;5.95;;;487.30;2380.80;;;;;;5115957;28;20480;-81
2021/08/07 04:17:43;;;;;;;13.05;5.28;;;487.20;2380.80;;;;;;5097781;28;20020;-82
2021/08/07 04:20:10;;;;;;;9.48;4.93;;;512.10;2380.80;;;;;;5099048;27;20028;-82
2021/08/07 04:22:37;;;;;;;14.07;5.22;;;512.20;2380.80;;;;;;5105498;27;20047;-83
2021/08/07 04:25:04;;;;;;;10.48;5.57;;;512.40;2380.80;;;;;;5118279;27;20019;-83
2021/08/07 04:27:29;;;;;;;8.48;5.75;;;512.40;2380.80;;;;;;5115360;27;20033;-84
2021/08/07 04:29:55;;;;;;;11.95;6.07;;;512.40;2380.80;;;;;;5112040;27;20431;-83
2021/08/07 04:32:21;;;;;;;9.35;6.53;;;512.60;2380.80;;;;;;5115114;27;20027;-81
2021/08/07 04:34:47;;;;;;;10.18;6.68;;;512.80;2380.80;;;;;;5118002;27;20019;-83
2021/08/07 04:37:13;;;;;;;13.25;8.63;;;512.90;2380.80;;;;;;5118193;27;20118;-82
2021/08/07 04:39:38;;;;;;;14.48;10.55;;;537.60;2406.40;;;;;;5106479;28;20056;-80
2021/08/07 04:42:04;;;;;;;10.27;8.70;;;537.80;2406.40;;;;;;5106742;28;20028;-83
2021/08/07 04:44:30;;;;;;;10.85;8.43;;;537.80;2406.40;;;;;;5142451;27;20031;-83
2021/08/07 04:46:56;;;;;;;16.00;7.80;;;537.90;2406.40;;;;;;5152427;27;20023;-80
2021/08/07 04:49:22;;;;;;;13.45;8.50;;;537.90;2406.40;;;;;;5117392;27;20030;-81
2021/08/07 04:51:51;;;;;;;10.13;8.02;;;538.00;2406.40;;;;;;5119789;27;20060;-83
2021/08/07 04:54:20;;;;;;;12.95;8.48;;;538.00;2406.40;;;;;;5117704;27;20024;-82
2021/08/07 04:56:47;;;;;;;14.20;7.68;;;538.10;2406.40;;;;;;5112688;27;20027;-80
2021/08/07 04:59:23;;;;;;;13.13;7.18;;;538.10;2406.40;;;;;;5117212;27;20353;-81
2021/08/07 05:01:48;;;;;;;12.15;6.63;;;538.10;2406.40;;;;;;5114554;27;20484;-79
2021/08/07 05:04:14;;;;;;;13.15;6.18;;;538.10;2406.40;;;;;;5134888;27;20021;-79
2021/08/07 05:06:43;;;;;;;9.50;6.28;;;538.20;2406.40;;;;;;5135130;27;20026;-78
2021/08/07 05:09:09;;;;;;;11.73;5.80;;;538.20;2406.40;;;;;;5116150;27;20023;-80
2021/08/07 05:11:37;;;;;;;9.55;5.40;;;538.20;2406.40;;;;;;5134474;27;20036;-81
2021/08/07 05:14:03;;;;;;;10.38;5.90;;;538.30;2406.40;;;;;;5134767;27;20019;-81
2021/08/07 05:16:42;;;;;;;9.63;5.20;;;538.50;2406.40;;;;;;5116285;27;20038;-81
2021/08/07 05:19:08;;;;;;;13.45;5.82;;;538.50;2406.40;;;;;;5148909;27;20102;-80
2021/08/07 05:21:34;;;;;;;11.25;5.78;;;538.50;2406.40;;;;;;5116945;27;20488;-79
2021/08/07 05:24:00;;;;;;;9.23;4.97;;;538.50;2406.40;;;;;;5115700;27;20035;-78
2021/08/07 05:26:25;;;;;;;11.25;5.55;;;563.20;2432.00;;;;;;5116105;27;20015;-79
2021/08/07 05:28:51;;;;;;;7.75;4.72;;;563.30;2432.00;;;;;;5116312;27;20023;-78
2021/08/07 05:31:17;;;;;;;12.52;5.22;;;563.40;2432.00;;;;;;5115267;27;20662;-79
2021/08/07 05:33:46;;;;;;;11.35;5.32;;;563.40;2432.00;;;;;;5116085;27;20027;-78
2021/08/07 05:36:12;;;;;;;8.50;4.30;;;563.60;2432.00;;;;;;5115082;27;20096;-78
2021/08/07 05:38:38;;;;;;;9.60;4.88;;;563.80;2406.40;;;;;;5116499;27;20076;-79
2021/08/07 05:41:03;;;;;;;7.93;5.75;;;563.80;2355.20;;;;;;5134276;27;20027;-80
2021/08/07 05:43:29;;;;;;;9.07;4.82;;;563.80;2406.40;;;;;;5115931;27;20023;-80
2021/08/07 05:45:55;;;;;;;8.27;5.53;;;563.80;2380.80;;;;;;5133600;27;20070;-79
2021/08/07 05:48:21;;;;;;;6.85;3.65;;;563.80;2432.00;;;;;;5115019;27;20027;-79
2021/08/07 05:50:47;;;;;;;5.68;3.53;;;563.80;2278.40;;;;;;5136792;27;20162;-80
2021/08/07 05:53:12;;;;;;;9.38;4.00;;;563.90;2304.00;;;;;;5133634;27;20090;-79
2021/08/07 05:55:38;;;;;;;6.45;3.80;;;564.00;2304.00;;;;;;5134301;27;20366;-78
2021/08/07 05:58:04;;;;;;;4.43;2.90;;;564.10;2329.60;;;;;;5115486;27;20015;-77
2021/08/07 06:00:30;;;;;;;6.00;3.60;;;564.10;2278.40;;;;;;5115230;27;20539;-78
2021/08/07 06:02:55;;;;;;;5.72;3.20;;;589.40;2329.60;;;;;;5133511;27;20020;-79
2021/08/07 06:05:21;;;;;;;8.18;2.88;;;589.00;2304.00;;;;;;5114669;27;20031;-78
2021/08/07 06:07:50;;;;;;;4.93;2.60;;;588.90;2201.60;;;;;;5133579;27;20103;-78
2021/08/07 06:10:16;;;;;;;6.90;3.28;;;589.00;2201.60;;;;;;5133883;27;20065;-78
2021/08/07 06:12:42;;;;;;;5.65;2.95;;;588.90;2227.20;;;;;;5115256;27;20027;-79
2021/08/07 06:15:08;;;;;;;7.25;3.35;;;589.00;2252.80;;;;;;5115009;27;20563;-79
2021/08/07 06:17:38;;;;;;;5.72;3.10;;;589.10;2252.80;;;;;;5115674;27;20027;-78
2021/08/07 06:20:05;;;;;;;5.82;3.30;;;589.30;2201.60;;;;;;5133778;27;20361;-78
2021/08/07 06:22:31;;;;;;;6.53;3.20;;;589.40;2252.80;;;;;;5132467;27;20523;-78
2021/08/07 06:25:00;;;;;;;5.05;3.80;;;589.70;2252.80;;;;;;5132840;27;20061;-78
2021/08/07 06:27:25;;;;;;;7.28;3.67;;;614.40;2227.20;;;;;;5130433;27;20047;-78
2021/08/07 06:29:51;;;;;;;6.32;3.40;;;614.50;2227.20;;;;;;5132770;27;20492;-78
2021/08/07 06:32:17;;;;;;;5.13;3.22;;;614.60;2252.80;;;;;;5118649;27;20043;-78
2021/08/07 06:34:43;;;;;;;4.22;2.83;;;614.60;2227.20;;;;;;5114300;27;20016;-78
2021/08/07 06:37:09;;;;;;;7.55;3.50;;;614.60;2176.00;;;;;;5114986;27;20027;-83
2021/08/07 06:39:35;;;;;;;5.53;3.40;;;614.80;2176.00;;;;;;5114596;27;20475;-78
2021/08/07 06:42:01;;;;;;;4.78;3.33;;;614.80;2150.40;;;;;;5132954;27;20058;-78
2021/08/07 06:44:26;;;;;;;6.18;3.17;;;614.80;2124.80;;;;;;5145898;27;20058;-78
2021/08/07 06:46:52;;;;;;;9.57;2.97;;;614.90;2150.40;;;;;;5114352;28;20419;-77
2021/08/07 06:49:18;;;;;;;9.43;3.42;;;615.00;2073.60;;;;;;5132241;27;20115;-77
2021/08/07 06:51:44;;;;;;;5.43;2.92;;;615.10;2073.60;;;;;;5112988;28;20026;-78
2021/08/07 06:54:09;;;;;;;9.25;3.45;;;615.30;2099.20;;;;;;5133062;28;20022;-78
2021/08/07 06:56:35;;;;;;;4.80;2.63;;;640.00;2099.20;;;;;;5132914;28;20034;-78
2021/08/07 06:59:01;;;;;;;5.47;2.60;;;640.00;2048.00;;;;;;5114541;28;20027;-78
2021/08/07 07:01:26;;;;;;;7.30;2.95;;;640.00;2022.40;;;;;;5114376;28;20051;-77
2021/08/07 07:03:52;;;;;;;4.30;2.08;;;640.10;2022.40;;;;;;5133202;28;20427;-77
2021/08/07 07:06:18;;;;;;;5.22;2.80;;;640.20;1920.00;;;;;;5114921;28;20019;-78
2021/08/07 07:08:43;;;;;;;6.57;2.58;;;640.40;1945.60;;;;;;5114413;28;20469;-79
2021/08/07 07:11:09;;;;;;;3.50;2.22;;;640.60;1945.60;;;;;;5132867;28;20380;-78
2021/08/07 07:13:35;;;;;;;5.18;2.17;;;640.60;1920.00;;;;;;5128230;28;20030;-78
2021/08/07 07:16:02;;;;;;;3.03;2.13;;;640.70;1868.80;;;;;;5131845;27;20089;-79
2021/08/07 07:18:28;;;;;;;3.90;2.08;;;640.90;1817.60;;;;;;5111773;28;20358;-80
2021/08/07 07:20:53;;;;;;;5.20;2.40;;;665.60;1817.60;;;;;;5114663;28;20026;-78
2021/08/07 07:23:19;;;;;;;3.92;2.40;;;665.70;1868.80;;;;;;5132568;28;20043;-78
2021/08/07 07:25:45;;;;;;;3.20;2.10;;;665.60;1868.80;;;;;;5132561;28;20469;-78
2021/08/07 07:28:11;;;;;;;10.20;2.45;;;666.00;1843.20;;;;;;5114379;28;20027;-78
2021/08/07 07:30:36;;;;;;;3.50;2.10;;;666.10;1868.80;;;;;;5113973;28;20034;-77
2021/08/07 07:33:02;;;;;;;4.80;1.98;;;666.30;1689.60;;;;;;5132723;28;20072;-75
2021/08/07 07:35:29;;;;;;;3.40;2.00;;;666.30;1740.80;;;;;;5132660;28;20027;-76
2021/08/07 07:37:55;;;;;;;4.50;1.88;;;666.30;1715.20;;;;;;5113583;28;20509;-77
2021/08/07 07:40:21;;;;;;;7.30;3.65;;;666.50;1792.00;;;;;;5133100;27;20065;-78
2021/08/07 07:42:47;;;;;;;4.70;2.17;;;666.50;1740.80;;;;;;5117989;27;20107;-76
2021/08/07 07:45:12;;;;;;;3.17;1.98;;;691.20;1740.80;;;;;;5117908;27;20027;-78
2021/08/07 07:47:38;;;;;;;2.92;1.98;;;691.20;1715.20;;;;;;5119224;27;20455;-79
2021/08/07 07:50:05;;;;;;;5.47;2.03;;;691.30;1715.20;;;;;;5129932;27;20026;-78
2021/08/07 07:52:30;;;;;;;3.35;2.22;;;691.30;1715.20;;;;;;5117044;27;20023;-79
2021/08/07 07:54:56;;;;;;;5.03;2.30;;;691.30;1766.40;;;;;;5128447;27;20099;-78
2021/08/07 07:57:22;;;;;;;3.45;2.33;;;691.40;1766.40;;;;;;5106812;27;20043;-77
2021/08/07 07:59:48;;;;;;;3.53;2.10;;;691.70;1664.00;;;;;;5115008;27;20051;-79
2021/08/07 08:02:14;;;;;;;7.22;2.38;;;691.80;1715.20;;;;;;5122835;27;20038;-80
2021/08/07 08:04:40;;;;;;;5.38;1.70;;;691.80;1740.80;;;;;;5115579;27;20046;-79
2021/08/07 08:07:06;;;;;;;5.00;2.17;;;692.10;1664.00;;;;;;5126536;27;20028;-78
2021/08/07 08:09:31;;;;;;;5.45;2.33;;;692.10;1689.60;;;;;;5118173;27;20027;-78
2021/08/07 08:11:57;;;;;;;3.13;1.90;;;716.90;1664.00;;;;;;5103782;28;20092;-78
2021/08/07 08:14:23;;;;;;;3.13;1.90;;;716.90;1689.60;;;;;;5124246;27;20031;-77
2021/08/07 08:16:49;;;;;;;2.53;1.85;;;716.90;1664.00;;;;;;5130714;27;20027;-77
2021/08/07 08:19:15;;;;;;;2.53;1.60;;;716.90;1638.40;;;;;;5127541;27;20055;-76
2021/08/07 08:21:41;;;;;;;3.33;2.20;;;716.90;1612.80;;;;;;5126182;27;20413;-77
2021/08/07 08:24:07;;;;;;;3.10;2.10;;;716.90;1561.60;;;;;;5119432;27;20119;-76
2021/08/07 08:26:33;;;;;;;3.83;2.00;;;717.00;1587.20;;;;;;5112560;27;20054;-76
2021/08/07 08:28:59;;;;;;;2.85;1.88;;;717.00;1638.40;;;;;;5135632;27;20027;-76
2021/08/07 08:31:24;;;;;;;4.85;1.92;;;716.90;1612.80;;;;;;5135860;27;20018;-77
2021/08/07 08:33:50;;;;;;;5.93;3.03;;;717.10;1587.20;;;;;;5135606;27;20019;-77
2021/08/07 08:36:16;;;;;;;2.95;1.98;;;717.00;1510.40;;;;;;5135928;27;20085;-76
2021/08/07 08:38:41;;;;;;;2.83;1.77;;;717.20;1612.80;;;;;;5135664;27;20073;-76
2021/08/07 08:41:07;;;;;;;5.15;1.80;;;717.20;1587.20;;;;;;5117065;27;20023;-77
2021/08/07 08:43:33;;;;;;;3.67;2.15;;;717.40;1638.40;;;;;;5116907;27;20027;-76
2021/08/07 08:45:59;;;;;;;2.60;1.65;;;717.30;1612.80;;;;;;5140455;27;20042;-78
2021/08/07 08:48:25;;;;;;;4.03;1.90;;;717.40;1587.20;;;;;;5124140;27;20530;-78
2021/08/07 08:50:52;;;;;;;6.22;2.17;;;717.40;1536.00;;;;;;5116549;27;20019;-77
2021/08/07 08:53:18;;;;;;;3.95;2.25;;;717.40;1536.00;;;;;;5134077;27;20015;-77
2021/08/07 08:55:45;;;;;;;5.07;1.63;;;717.40;1587.20;;;;;;5114485;27;20023;-77
2021/08/07 08:58:11;;;;;;;3.92;1.98;;;717.60;1612.80;;;;;;5114245;27;20023;-77
2021/08/07 09:00:37;;;;;;;5.00;2.10;;;717.40;1536.00;;;;;;5112130;27;20388;-81
2021/08/07 09:03:03;;;;;;;3.90;2.13;;;717.40;1561.60;;;;;;5114308;27;20023;-78
2021/08/07 09:05:29;;;;;;;2.42;1.70;;;717.40;1587.20;;;;;;5132418;27;20520;-77
2021/08/07 09:07:54;;;;;;;3.00;1.98;;;717.40;1510.40;;;;;;5138592;27;20022;-75
2021/08/07 09:10:22;;;;;;;3.10;1.65;;;717.60;1587.20;;;;;;5132788;27;20023;-78
2021/08/07 09:12:55;;;;;;;2.90;1.85;;;717.70;1561.60;;;;;;5114379;27;20103;-75
2021/08/07 09:15:35;;;;;;;4.65;1.92;;;742.40;1612.80;;;;;;5132048;27;20031;-75
2021/08/07 09:18:10;;;;;;;2.30;1.60;;;742.40;1638.40;;;;;;5130713;27;20030;-75
2021/08/07 09:20:41;;;;;;;5.30;2.00;;;742.40;1561.60;;;;;;5133231;27;20035;-75
2021/08/07 09:23:07;;;;;;;2.75;1.90;;;742.60;1561.60;;;;;;5129987;27;20608;-76
2021/08/07 09:25:41;;;;;;;5.80;2.25;;;742.70;1484.80;;;;;;5121233;27;20027;-75
2021/08/07 09:28:07;;;;;;;3.50;2.20;;;742.60;1510.40;;;;;;5132525;27;20019;-78
2021/08/07 09:30:35;;;;;;;2.60;1.83;;;742.70;1510.40;;;;;;5125864;27;20073;-78
2021/08/07 09:33:10;;;;;;;2.63;1.90;;;742.60;1484.80;;;;;;5114819;27;20045;-78
2021/08/07 09:35:39;;;;;;;3.97;1.80;;;742.60;1510.40;;;;;;5132469;27;20033;-75
2021/08/07 09:38:30;;;;;;;2.53;1.90;;;742.70;1459.20;;;;;;5133071;27;20022;-76
2021/08/07 09:41:02;;;;;;;2.92;1.73;;;742.80;1484.80;;;;;;5130724;27;20019;-77
2021/08/07 09:43:31;;;;;;;3.00;1.67;;;742.80;1433.60;;;;;;5108473;27;20015;-76
2021/08/07 09:46:02;;;;;;;3.47;1.70;;;742.90;1459.20;;;;;;5118948;27;20019;-77
2021/08/07 09:48:54;;;;;;;8.18;2.10;;;743.10;1382.40;;;;;;5118873;27;20042;-78
2021/08/07 09:51:24;;;;;;;3.25;1.70;;;743.20;1459.20;;;;;;5077737;28;20518;-80
2021/08/07 09:54:00;;;;;;;2.97;1.67;;;743.20;1433.60;;;;;;5058673;28;20110;-75
2021/08/07 09:56:25;;;;;;;;;;;768.10;1382.40;;;;;;5063184;28;20058;-78
2021/08/07 09:59:08;;;;;;;4.50;1.65;;;743.30;1408.00;;;;;;5058732;28;19986;-76
2021/08/07 10:01:35;;;;;;;2.95;1.63;;;743.30;1382.40;;;;;;5074285;28;20024;-77
2021/08/07 10:04:11;;;;;;;4.90;2.03;;;768.10;1356.80;;;;;;5064566;28;20028;-75
2021/08/07 10:06:38;;;;;;;3.10;2.28;;;768.40;1331.20;;;;;;5058608;28;20025;-77
2021/08/07 10:09:05;;;;;;;2.65;1.75;;;768.60;1305.60;;;;;;5069892;28;20032;-76
2021/08/07 10:11:32;;;;;;;7.97;2.28;;;768.60;1382.40;;;;;;5051222;28;20496;-79
2021/08/07 10:13:58;;;;;;;3.08;2.00;;;768.60;1408.00;;;;;;5065498;28;20040;-78
2021/08/07 10:16:24;;;;;;;6.25;1.88;;;768.70;1356.80;;;;;;5042152;28;20430;-78
2021/08/07 10:18:51;;;;;;;3.20;1.80;;;793.60;1356.80;;;;;;5062962;28;20099;-78
2021/08/07 10:21:17;;;;;;;3.55;1.83;;;793.70;1356.80;;;;;;5046035;28;20397;-75
2021/08/07 10:23:45;;;;;;;5.00;1.95;;;793.90;1382.40;;;;;;5066707;28;20509;-76
2021/08/07 10:26:15;;;;;;;3.65;1.92;;;794.00;1280.00;;;;;;5070459;28;20123;-76
2021/08/07 10:28:57;;;;;;;2.38;1.70;;;794.20;1280.00;;;;;;5117661;27;20039;-76
2021/08/07 10:31:25;;;;;;;2.53;1.88;;;794.20;1305.60;;;;;;5111925;27;20125;-75
2021/08/07 10:34:04;;;;;;;2.33;1.80;;;794.10;1280.00;;;;;;5133235;27;20372;-75
2021/08/07 10:36:30;;;;;;;3.17;2.03;;;794.40;1254.40;;;;;;5133763;27;20032;-74
2021/08/07 10:38:57;;;;;;;2.70;1.90;;;794.30;1280.00;;;;;;5133258;27;20015;-76
2021/08/07 10:41:31;;;;;;;3.13;2.10;;;819.30;1203.20;;;;;;5124265;27;20376;-74
2021/08/07 10:43:58;;;;;;;3.85;1.50;;;819.40;1177.60;;;;;;5132992;27;20011;-78
2021/08/07 10:46:27;;;;;;;2.05;1.52;;;819.40;1126.40;;;;;;5141563;27;20014;-78
2021/08/07 10:48:54;;;;;;;4.45;1.50;;;819.30;1152.00;;;;;;5117711;27;20030;-77
2021/08/07 10:51:22;;;;;;;4.22;1.70;;;819.40;1228.80;;;;;;5114912;28;20023;-75
2021/08/07 10:53:53;;;;;;;3.15;1.92;;;819.60;1177.60;;;;;;5133433;28;20020;-76
2021/08/07 10:56:31;;;;;;;6.95;2.45;;;819.60;1126.40;;;;;;5133389;28;20031;-77
2021/08/07 10:59:10;;;;;;;2.50;1.70;;;819.80;1126.40;;;;;;5132948;28;20019;-77
2021/08/07 11:01:42;;;;;;;4.22;1.55;;;819.80;1126.40;;;;;;5122350;28;20020;-76
2021/08/07 11:04:17;;;;;;;2.10;1.40;;;819.60;1177.60;;;;;;5127478;28;20046;-77
2021/08/07 11:06:43;;;;;;;3.42;1.75;;;819.60;1254.40;;;;;;5111450;28;20027;-79
2021/08/07 11:09:17;;;;;;;2.80;1.80;;;819.80;1228.80;;;;;;5132614;28;20365;-76
2021/08/07 11:11:44;;;;;;;6.78;2.45;;;819.80;1203.20;;;;;;5129547;28;20165;-75
2021/08/07 11:14:24;;;;;;;7.07;1.55;;;819.30;1177.60;;;;;;5118739;28;20078;-76
2021/08/07 11:17:19;;;;;;;2.67;1.88;;;819.30;1203.20;;;;;;5125073;27;20035;-75
2021/08/07 11:19:50;;;;;;;6.60;1.55;;;819.70;1152.00;;;;;;5105071;27;20488;-76
2021/08/07 11:22:17;;;;;;;5.40;2.05;;;819.60;1177.60;;;;;;5135204;27;20043;-75
2021/08/07 11:24:48;;;;;;;3.10;1.80;;;819.60;1152.00;;;;;;5137293;27;20015;-75
2021/08/07 11:27:16;;;;;;;3.17;2.42;;;819.80;1203.20;;;;;;5116429;27;20034;-75
2021/08/07 11:30:18;;;;;;;2.78;1.95;;;819.60;1228.80;;;;;;5130995;27;20023;-77
2021/08/07 11:32:56;;;;;;;3.10;2.05;;;819.70;1228.80;;;;;;5111114;27;20031;-75
2021/08/07 11:35:34;;;;;;;2.50;1.70;;;819.80;1203.20;;;;;;5134168;27;20130;-76
2021/08/07 11:38:06;;;;;;;5.88;2.40;;;819.60;1280.00;;;;;;5135328;27;20387;-75
2021/08/07 11:41:04;;;;;;;2.92;2.08;;;819.80;1254.40;;;;;;5128685;27;20031;-76
2021/08/07 11:43:36;;;;;;;4.13;1.98;;;820.00;1177.60;;;;;;5118236;27;20468;-76
2021/08/07 11:46:02;;;;;;;2.85;1.70;;;820.10;1203.20;;;;;;5134471;27;20495;-78
2021/08/07 11:49:02;;;;;;;5.85;2.55;;;819.90;1254.40;;;;;;5139327;27;20023;-76
2021/08/07 11:51:29;;;;;;;5.78;1.88;;;819.80;1228.80;;;;;;5053060;28;20041;-85
2021/08/07 11:53:55;;;;;;;6.07;2.33;;;844.80;1280.00;;;;;;5053184;28;20091;-79
2021/08/07 11:56:23;;;;;;;2.63;1.85;;;844.90;1228.80;;;;;;5053152;28;20601;-76
2021/08/07 11:58:52;;;;;;;1.83;1.52;;;844.80;1203.20;;;;;;5052618;28;20108;-76
2021/08/07 12:01:19;;;;;;;5.57;1.73;;;844.90;1177.60;;;;;;5052883;28;20055;-79
2021/08/07 12:03:50;;;;;;;6.22;2.13;;;820.10;1254.40;;;;;;5052942;28;20106;-79
2021/08/07 12:06:34;;;;;;;4.15;2.10;;;845.20;1254.40;;;;;;5052557;28;20023;-76
2021/08/07 12:09:02;;;;;;;4.65;2.03;;;845.30;1203.20;;;;;;5052559;28;20438;-76
2021/08/07 12:11:28;;;;;;;5.22;2.05;;;845.30;1228.80;;;;;;5052622;28;20024;-77
2021/08/07 12:13:58;;;;;;;3.35;1.77;;;845.40;1228.80;;;;;;5035741;28;20493;-77
2021/08/07 12:16:36;;;;;;;5.75;2.53;;;845.20;1228.80;;;;;;5060207;28;20154;-76
2021/08/07 12:19:05;;;;;;;3.50;2.30;;;845.20;1203.20;;;;;;5052325;28;20057;-80
2021/08/07 12:21:41;;;;;;;4.20;1.83;;;845.20;1254.40;;;;;;5053106;28;20045;-77